Time;durP1;ratioP1;P1;durP2;ratioP2;P2;SDS_P1;SDS_P2;PMS_P1;PMS_P2;Temp;Humidity;BMP_temperature;BMP_pressure;BME280_temperature;BME280_humidity;BME280_pressure;Samples;Min_cycle;Max_cycle;Signal;HPM_P1;HPM_P2
2023/10/26 00:01:09;;;;;;;1.60;1.50;;;;;;;8.77;100.00;95642.75;5099256;28;20870;-80
2023/10/26 00:03:35;;;;;;;3.13;1.70;;;;;;;8.78;100.00;95645.13;5099094;28;20390;-81
2023/10/26 00:06:01;;;;;;;1.98;1.60;;;;;;;8.80;100.00;95648.25;5099194;28;20435;-81
2023/10/26 00:08:28;;;;;;;1.50;1.40;;;;;;;8.83;100.00;95647.69;5114663;28;20445;-81
2023/10/26 00:10:55;;;;;;;2.25;1.55;;;;;;;8.85;100.00;95653.47;5099428;28;20390;-81
2023/10/26 00:13:21;;;;;;;2.97;1.55;;;;;;;8.87;100.00;95656.59;5098803;28;20390;-81
2023/10/26 00:15:47;;;;;;;1.98;1.63;;;;;;;8.90;100.00;95649.97;5103808;28;20397;-79
2023/10/26 00:18:15;;;;;;;2.10;1.35;;;;;;;8.93;100.00;95650.22;5103558;28;20402;-80
2023/10/26 00:20:41;;;;;;;1.55;1.45;;;;;;;8.95;100.00;95652.53;5104710;28;20390;-81
2023/10/26 00:23:07;;;;;;;1.58;1.48;;;;;;;8.95;100.00;95652.53;5105367;28;20401;-81
2023/10/26 00:25:35;;;;;;;1.50;1.40;;;;;;;8.97;100.00;95639.06;5105297;28;20408;-80
2023/10/26 00:28:01;;;;;;;1.48;1.38;;;;;;;8.99;100.00;95655.41;5122548;28;20501;-80
2023/10/26 00:30:27;;;;;;;1.50;1.40;;;;;;;8.99;100.00;95650.94;5106501;28;20401;-82
2023/10/26 00:32:53;;;;;;;1.77;1.55;;;;;;;9.01;100.00;95648.00;5110781;28;20398;-82
2023/10/26 00:35:19;;;;;;;2.57;1.90;;;;;;;9.00;100.00;95643.81;5108445;28;20471;-82
2023/10/26 00:37:46;;;;;;;2.17;1.70;;;;;;;9.00;100.00;95644.59;5125682;28;20413;-82
2023/10/26 00:40:12;;;;;;;3.70;1.90;;;;;;;8.99;100.00;95643.00;5110087;28;20397;-82
2023/10/26 00:42:40;;;;;;;2.90;1.90;;;;;;;9.00;100.00;95643.81;5120702;28;20398;-80
2023/10/26 00:45:06;;;;;;;2.08;1.80;;;;;;;8.97;100.00;95642.50;5104532;28;20402;-80
2023/10/26 00:47:33;;;;;;;2.30;1.80;;;;;;;8.93;100.00;95637.03;5104523;28;20417;-81
2023/10/26 00:50:00;;;;;;;3.85;2.30;;;;;;;8.91;100.00;95641.00;5104049;28;20391;-81
2023/10/26 00:52:26;;;;;;;3.58;2.13;;;;;;;8.88;100.00;95633.63;5104155;28;20397;-80
2023/10/26 00:54:53;;;;;;;3.13;2.22;;;;;;;8.85;100.00;95624.44;5103178;28;20397;-81
2023/10/26 00:57:23;;;;;;;3.25;1.90;;;;;;;8.83;100.00;95631.84;5103880;28;20759;-80
2023/10/26 00:59:52;;;;;;;2.60;2.00;;;;;;;8.81;100.00;95628.69;5104489;28;20496;-81
2023/10/26 01:02:19;;;;;;;3.93;2.10;;;;;;;8.80;100.00;95632.41;5104121;28;20394;-80
2023/10/26 01:04:46;;;;;;;5.67;2.40;;;;;;;8.79;100.00;95630.06;5104545;28;20394;-80
2023/10/26 01:07:12;;;;;;;4.73;2.27;;;;;;;8.81;100.00;95626.06;5103819;28;20398;-80
2023/10/26 01:09:38;;;;;;;3.20;2.30;;;;;;;8.80;100.00;95624.50;5103615;28;20429;-81
2023/10/26 01:12:05;;;;;;;2.70;1.97;;;;;;;8.79;100.00;95622.94;5104457;28;20409;-81
2023/10/26 01:14:31;;;;;;;4.22;2.60;;;;;;;8.76;100.00;95620.88;5104481;28;20432;-81
2023/10/26 01:16:59;;;;;;;3.22;2.25;;;;;;;8.74;100.00;95623.00;5104206;28;20426;-82
2023/10/26 01:19:39;;;;;;;3.53;2.40;;;;;;;8.75;100.00;95621.94;5104345;28;20394;-80
2023/10/26 01:22:07;;;;;;;4.47;2.50;;;;;;;8.76;100.00;95626.13;5104776;28;20866;-82
2023/10/26 01:24:34;;;;;;;3.95;2.60;;;;;;;8.76;100.00;95622.72;5104782;28;20442;-80
2023/10/26 01:27:00;;;;;;;2.40;2.20;;;;;;;8.75;100.00;95632.47;5104184;28;20393;-81
2023/10/26 01:29:26;;;;;;;4.90;2.85;;;;;;;8.70;100.00;95624.63;5104424;28;20426;-80
2023/10/26 01:31:53;;;;;;;4.60;2.30;;;;;;;8.68;100.00;95631.25;5100754;28;20386;-80
2023/10/26 01:34:19;;;;;;;4.03;2.67;;;;;;;8.68;100.00;95632.03;5101904;28;20398;-82
2023/10/26 01:36:45;;;;;;;5.35;2.40;;;;;;;8.69;100.00;95624.91;5100799;28;20477;-81
2023/10/26 01:39:13;;;;;;;2.50;2.30;;;;;;;8.68;100.00;95633.88;5101639;28;20913;-81
2023/10/26 01:41:39;;;;;;;5.80;2.60;;;;;;;8.64;100.00;95636.31;5101725;28;20431;-81
2023/10/26 01:44:06;;;;;;;3.20;2.45;;;;;;;8.61;100.00;95628.94;5103282;28;20398;-82
2023/10/26 01:46:32;;;;;;;3.70;2.30;;;;;;;8.58;100.00;95633.97;5101066;28;20434;-80
2023/10/26 01:49:00;;;;;;;3.33;2.20;;;;;;;8.51;100.00;95634.31;5100799;28;20409;-81
2023/10/26 01:51:26;;;;;;;1.92;1.70;;;;;;;8.46;100.00;95634.38;5100506;28;20425;-80
2023/10/26 01:53:52;;;;;;;3.75;2.10;;;;;;;8.39;100.00;95624.19;5100345;28;20409;-80
2023/10/26 01:56:20;;;;;;;2.13;1.92;;;;;;;8.32;100.00;95625.56;5100326;28;20383;-81
2023/10/26 01:58:46;;;;;;;5.22;2.42;;;;;;;8.26;100.00;95627.47;5100088;28;20424;-81
2023/10/26 02:01:13;;;;;;;5.53;2.55;;;;;;;8.21;100.00;95631.97;5116083;28;20402;-82
2023/10/26 02:03:39;;;;;;;4.63;2.80;;;;;;;8.23;100.00;95630.63;5100441;28;20432;-81
2023/10/26 02:06:05;;;;;;;3.63;2.55;;;;;;;8.22;100.00;95628.28;5099837;28;20451;-82
2023/10/26 02:08:33;;;;;;;3.97;2.80;;;;;;;8.19;100.00;95636.75;5100905;28;20785;-80
2023/10/26 02:10:59;;;;;;;5.10;2.83;;;;;;;8.16;100.00;95638.88;5100053;28;20398;-83
2023/10/26 02:13:27;;;;;;;3.63;2.60;;;;;;;8.14;100.00;95641.00;5100870;28;20460;-81
2023/10/26 02:15:53;;;;;;;3.35;2.28;;;;;;;8.09;100.00;95640.25;5103483;28;20877;-81
2023/10/26 02:18:19;;;;;;;5.10;2.50;;;;;;;8.02;100.00;95645.84;5104143;28;20420;-81
2023/10/26 02:20:46;;;;;;;5.10;2.63;;;;;;;7.94;100.00;95650.94;5099921;28;20386;-81
2023/10/26 02:23:12;;;;;;;5.40;2.58;;;;;;;7.86;100.00;95640.97;5099137;28;20467;-81
2023/10/26 02:25:38;;;;;;;3.60;2.50;;;;;;;7.80;100.00;95647.38;5099845;28;20402;-81
2023/10/26 02:28:04;;;;;;;3.70;2.45;;;;;;;7.74;100.00;95652.66;5099460;28;20607;-80
2023/10/26 02:30:31;;;;;;;3.40;2.70;;;;;;;7.69;100.00;95642.16;5099327;28;20393;-81
2023/10/26 02:32:58;;;;;;;3.30;2.60;;;;;;;7.64;100.00;95644.84;5099556;28;20437;-80
2023/10/26 02:35:24;;;;;;;3.22;2.70;;;;;;;7.58;100.00;95638.03;5099875;28;20455;-81
2023/10/26 02:37:50;;;;;;;3.15;2.30;;;;;;;7.54;100.00;95644.91;5100184;28;20393;-81
2023/10/26 02:40:16;;;;;;;3.85;2.72;;;;;;;7.51;100.00;95639.41;5100358;28;20398;-80
2023/10/26 02:42:42;;;;;;;3.53;2.85;;;;;;;7.46;100.00;95640.22;5099905;28;20404;-81
2023/10/26 02:45:09;;;;;;;4.78;2.72;;;;;;;7.44;100.00;95641.56;5081714;28;20420;-81
2023/10/26 02:47:39;;;;;;;4.07;2.40;;;;;;;7.42;100.00;95641.06;5079141;28;20412;-81
2023/10/26 02:50:06;;;;;;;2.93;2.40;;;;;;;7.39;100.00;95653.69;5081151;28;20391;-82
2023/10/26 02:52:33;;;;;;;4.13;2.50;;;;;;;7.38;100.00;95643.44;5086947;28;20458;-81
2023/10/26 02:54:59;;;;;;;2.80;2.40;;;;;;;7.35;100.00;95652.66;5084826;28;20396;-82
2023/10/26 02:57:25;;;;;;;2.70;2.30;;;;;;;7.32;100.00;95649.78;5084486;28;20736;-81
2023/10/26 02:59:51;;;;;;;2.67;2.30;;;;;;;7.32;100.00;95655.06;5087608;28;20395;-82
2023/10/26 03:02:17;;;;;;;2.60;2.30;;;;;;;7.31;100.00;95646.38;5088174;28;20948;-81
2023/10/26 03:04:45;;;;;;;4.32;2.50;;;;;;;7.29;100.00;95642.44;5084290;28;20422;-81
2023/10/26 03:07:11;;;;;;;4.18;2.70;;;;;;;7.27;100.00;95644.56;5084161;28;20845;-81
2023/10/26 03:09:37;;;;;;;3.53;2.50;;;;;;;7.26;100.00;95642.97;5083655;28;20419;-81
2023/10/26 03:12:04;;;;;;;4.45;2.50;;;;;;;7.26;100.00;95643.78;5083802;28;20400;-80
2023/10/26 03:14:30;;;;;;;3.63;2.70;;;;;;;7.26;100.00;95641.13;5083411;28;20786;-81
2023/10/26 03:16:56;;;;;;;4.20;2.67;;;;;;;7.26;100.00;95643.78;5083831;28;20396;-81
2023/10/26 03:19:22;;;;;;;4.13;3.10;;;;;;;7.27;100.00;95649.81;5083621;28;20407;-80
2023/10/26 03:21:50;;;;;;;4.57;2.80;;;;;;;7.27;100.00;95636.66;5084059;28;20388;-81
2023/10/26 03:24:16;;;;;;;3.38;2.85;;;;;;;7.27;100.00;95637.47;5083019;28;20400;-81
2023/10/26 03:26:42;;;;;;;2.92;2.60;;;;;;;7.28;100.00;95644.28;5084242;28;20396;-81
2023/10/26 03:29:08;;;;;;;3.35;2.80;;;;;;;7.28;100.00;95632.97;5083906;28;20803;-81
2023/10/26 03:31:36;;;;;;;3.38;2.80;;;;;;;7.28;100.00;95636.41;5083859;28;20395;-81
2023/10/26 03:34:02;;;;;;;4.40;2.75;;;;;;;7.27;100.00;95632.19;5083976;28;20395;-81
2023/10/26 03:36:28;;;;;;;3.75;2.83;;;;;;;7.26;100.00;95630.63;5085553;28;20396;-80
2023/10/26 03:38:56;;;;;;;4.07;2.75;;;;;;;7.24;100.00;95634.56;5086235;28;20396;-81
2023/10/26 03:41:22;;;;;;;6.32;3.05;;;;;;;7.22;100.00;95634.84;5084680;28;20403;-80
2023/10/26 03:43:49;;;;;;;3.10;2.75;;;;;;;7.21;100.00;95646.44;5085662;28;20396;-80
2023/10/26 03:46:15;;;;;;;3.30;2.97;;;;;;;7.19;100.00;95639.88;5075133;28;20401;-80
2023/10/26 03:48:41;;;;;;;3.65;2.92;;;;;;;7.17;100.00;95645.41;5064495;28;20413;-82
2023/10/26 03:51:07;;;;;;;4.03;3.23;;;;;;;7.15;100.00;95644.09;5080070;28;20392;-81
2023/10/26 03:53:34;;;;;;;3.58;3.10;;;;;;;7.13;100.00;95641.75;5084967;28;20780;-79
2023/10/26 03:56:02;;;;;;;5.80;3.00;;;;;;;7.12;100.00;95632.28;5084195;28;20419;-80
2023/10/26 03:58:28;;;;;;;5.35;3.20;;;;;;;7.10;100.00;95636.22;5086600;28;20409;-79
2023/10/26 04:00:56;;;;;;;4.57;3.15;;;;;;;7.10;100.00;95630.97;5088829;28;20810;-79
2023/10/26 04:03:22;;;;;;;4.28;3.03;;;;;;;7.09;100.00;95632.81;5088123;28;20403;-79
2023/10/26 04:05:48;;;;;;;4.45;3.30;;;;;;;7.09;100.00;95624.13;5089718;28;20400;-80
2023/10/26 04:08:15;;;;;;;5.28;3.10;;;;;;;7.09;100.00;95635.44;5088865;28;20427;-81
2023/10/26 04:10:42;;;;;;;5.55;3.42;;;;;;;7.09;100.00;95622.28;5086917;28;20482;-80
2023/10/26 04:13:09;;;;;;;4.43;3.35;;;;;;;7.11;100.00;95629.91;5085475;28;20914;-79
2023/10/26 04:15:35;;;;;;;5.25;3.50;;;;;;;7.14;100.00;95626.75;5083067;28;20396;-79
2023/10/26 04:18:04;;;;;;;4.38;3.22;;;;;;;7.15;100.00;95621.19;5084081;28;20403;-80
2023/10/26 04:20:30;;;;;;;4.85;3.55;;;;;;;7.15;100.00;95618.56;5086969;28;20388;-79
2023/10/26 04:22:56;;;;;;;4.72;3.30;;;;;;;7.16;100.00;95620.13;5080880;28;20414;-80
2023/10/26 04:25:23;;;;;;;4.75;3.40;;;;;;;7.17;100.00;95621.72;5086738;28;20479;-82
2023/10/26 04:27:49;;;;;;;4.68;3.10;;;;;;;7.17;100.00;95616.44;5082895;28;20415;-82
2023/10/26 04:30:17;;;;;;;4.22;3.30;;;;;;;7.18;100.00;95622.50;5084336;28;20483;-80
2023/10/26 04:32:43;;;;;;;5.57;3.38;;;;;;;7.20;100.00;95626.44;5083224;28;20391;-80
2023/10/26 04:35:09;;;;;;;5.63;3.10;;;;;;;7.19;100.00;95632.75;5083743;28;20394;-79
2023/10/26 04:37:36;;;;;;;4.47;3.33;;;;;;;7.20;100.00;95625.66;5084096;28;20399;-80
2023/10/26 04:40:03;;;;;;;5.75;3.40;;;;;;;7.20;100.00;95630.91;5085328;28;20399;-81
2023/10/26 04:42:29;;;;;;;3.70;3.17;;;;;;;7.19;100.00;95632.75;5084121;28;20422;-80
2023/10/26 04:44:55;;;;;;;5.10;3.53;;;;;;;7.19;100.00;95630.13;5085115;28;20403;-80
2023/10/26 04:47:23;;;;;;;4.63;3.53;;;;;;;7.18;100.00;95619.88;5086332;28;20403;-81
2023/10/26 04:49:49;;;;;;;4.50;3.42;;;;;;;7.19;100.00;95616.19;5084930;28;20404;-80
2023/10/26 04:52:18;;;;;;;4.95;3.50;;;;;;;7.18;100.00;95618.03;5086511;28;20392;-80
2023/10/26 04:54:45;;;;;;;6.13;3.40;;;;;;;7.19;100.00;95608.28;5085628;28;21038;-80
2023/10/26 04:57:11;;;;;;;3.75;3.05;;;;;;;7.18;100.00;95612.75;5086211;28;20437;-81
2023/10/26 04:59:37;;;;;;;4.50;3.10;;;;;;;7.18;100.00;95601.44;5085837;28;20392;-80
2023/10/26 05:02:03;;;;;;;2.97;2.67;;;;;;;7.19;100.00;95601.19;5087527;28;20399;-81
2023/10/26 05:04:31;;;;;;;3.55;3.00;;;;;;;7.19;100.00;95595.94;5086980;28;20399;-82
2023/10/26 05:06:57;;;;;;;3.70;2.90;;;;;;;7.21;100.00;95603.56;5087874;28;20442;-81
2023/10/26 05:09:23;;;;;;;7.85;2.90;;;;;;;7.21;100.00;95608.81;5086896;28;20415;-80
2023/10/26 05:11:49;;;;;;;3.13;2.63;;;;;;;7.20;100.00;95600.13;5080907;28;20882;-81
2023/10/26 05:14:15;;;;;;;4.10;2.78;;;;;;;7.20;100.00;95605.41;5080718;28;20424;-80
2023/10/26 05:16:41;;;;;;;3.78;3.03;;;;;;;7.20;100.00;95601.97;5081750;28;20403;-79
2023/10/26 05:19:08;;;;;;;4.90;2.88;;;;;;;7.19;100.00;95600.41;5080700;28;20404;-78
2023/10/26 05:21:35;;;;;;;3.78;3.00;;;;;;;7.17;100.00;95589.34;5074238;28;20409;-78
2023/10/26 05:24:03;;;;;;;3.87;3.03;;;;;;;7.17;100.00;95591.97;5074321;28;20405;-78
2023/10/26 05:26:29;;;;;;;4.35;3.30;;;;;;;7.15;100.00;95587.00;5074645;28;20380;-77
2023/10/26 05:28:55;;;;;;;4.45;2.90;;;;;;;7.15;100.00;95588.84;5075262;28;20454;-78
2023/10/26 05:31:21;;;;;;;6.28;3.10;;;;;;;7.15;100.00;95587.00;5080248;28;20396;-79
2023/10/26 05:33:47;;;;;;;5.80;3.40;;;;;;;7.14;100.00;95587.28;5082850;28;20391;-80
2023/10/26 05:36:13;;;;;;;6.68;3.50;;;;;;;7.15;100.00;95586.19;5082232;28;20453;-80
2023/10/26 05:38:42;;;;;;;3.88;3.20;;;;;;;7.14;100.00;95585.41;5081945;28;20701;-80
2023/10/26 05:41:08;;;;;;;4.00;3.17;;;;;;;7.17;100.00;95578.81;5081069;28;20418;-81
2023/10/26 05:43:34;;;;;;;4.80;3.20;;;;;;;7.19;100.00;95579.34;5081274;28;20429;-80
2023/10/26 05:46:03;;;;;;;4.35;3.25;;;;;;;7.21;100.00;95577.25;5081672;28;20392;-81
2023/10/26 05:48:31;;;;;;;4.22;3.22;;;;;;;7.24;100.00;95564.31;5081397;28;20408;-81
2023/10/26 05:50:58;;;;;;;6.05;2.92;;;;;;;7.28;100.00;95567.97;5081482;28;20543;-81
2023/10/26 05:53:24;;;;;;;4.25;2.90;;;;;;;7.32;100.00;95568.19;5080773;28;20395;-81
2023/10/26 05:55:57;;;;;;;3.80;2.80;;;;;;;7.35;100.00;95559.75;5080164;28;20400;-80
2023/10/26 05:58:24;;;;;;;2.75;2.53;;;;;;;7.39;100.00;95560.78;5080266;28;20407;-80
2023/10/26 06:00:50;;;;;;;4.20;3.00;;;;;;;7.43;100.00;95561.81;5080416;28;20945;-80
2023/10/26 06:03:16;;;;;;;4.25;2.45;;;;;;;7.48;100.00;95558.34;5080289;28;20403;-82
2023/10/26 06:05:43;;;;;;;4.65;2.85;;;;;;;7.51;100.00;95566.50;5081247;28;20400;-80
2023/10/26 06:08:09;;;;;;;3.75;2.70;;;;;;;7.52;100.00;95578.56;5075729;28;20895;-81
2023/10/26 06:10:35;;;;;;;4.15;2.53;;;;;;;7.56;100.00;95563.00;5078537;28;20422;-81
2023/10/26 06:13:03;;;;;;;4.03;2.42;;;;;;;7.57;100.00;95560.13;5078729;28;20728;-80
2023/10/26 06:15:29;;;;;;;3.80;2.80;;;;;;;7.61;100.00;95561.13;5078644;28;20388;-81
2023/10/26 06:17:55;;;;;;;3.33;2.73;;;;;;;7.63;100.00;95556.38;5083130;28;20396;-80
2023/10/26 06:20:27;;;;;;;3.50;2.42;;;;;;;7.66;100.00;95553.19;5079936;28;20395;-83
2023/10/26 06:22:53;;;;;;;2.63;2.43;;;;;;;7.69;100.00;95567.63;5082023;28;20426;-83
2023/10/26 06:25:20;;;;;;;3.72;2.40;;;;;;;7.72;100.00;95570.53;5083319;28;20755;-83
2023/10/26 06:27:47;;;;;;;5.15;2.90;;;;;;;7.75;100.00;95571.78;5081543;28;20494;-83
2023/10/26 06:30:15;;;;;;;4.07;3.10;;;;;;;7.76;100.00;95573.38;5083152;28;20403;-83
2023/10/26 06:32:42;;;;;;;3.50;2.90;;;;;;;7.80;100.00;95571.78;5083647;28;20396;-82
2023/10/26 06:35:10;;;;;;;3.40;2.70;;;;;;;7.84;100.00;95559.59;5083051;28;20921;-81
2023/10/26 06:37:37;;;;;;;4.63;2.70;;;;;;;7.89;100.00;95566.69;5085226;28;20946;-81
2023/10/26 06:40:04;;;;;;;2.87;2.57;;;;;;;7.93;100.00;95571.13;5083917;28;20821;-81
2023/10/26 06:42:30;;;;;;;3.83;2.78;;;;;;;7.95;100.00;95563.72;5082116;28;20818;-81
2023/10/26 06:44:56;;;;;;;4.00;2.95;;;;;;;7.98;100.00;95557.88;5083409;28;20407;-83
2023/10/26 06:47:24;;;;;;;3.70;2.80;;;;;;;8.03;100.00;95562.34;5083629;28;20408;-82
2023/10/26 06:49:50;;;;;;;3.83;2.40;;;;;;;8.07;100.00;95566.75;5081909;28;20447;-82
2023/10/26 06:52:16;;;;;;;7.82;3.70;;;;;;;8.09;100.00;95561.22;5083084;28;20399;-83
2023/10/26 06:54:45;;;;;;;4.30;3.15;;;;;;;8.11;100.00;95559.88;5083335;28;20404;-82
2023/10/26 06:57:12;;;;;;;4.60;2.92;;;;;;;8.15;100.00;95560.09;5084318;28;20452;-83
2023/10/26 06:59:38;;;;;;;3.50;2.85;;;;;;;8.20;100.00;95559.22;5083869;28;20395;-82
2023/10/26 07:02:04;;;;;;;2.50;2.30;;;;;;;8.23;100.00;95566.59;5082729;28;20399;-82
2023/10/26 07:04:32;;;;;;;3.00;2.50;;;;;;;8.28;100.00;95574.44;5082788;28;20410;-82
2023/10/26 07:06:58;;;;;;;3.23;2.50;;;;;;;8.31;100.00;95572.06;5082375;28;20403;-82
2023/10/26 07:09:24;;;;;;;4.03;2.50;;;;;;;8.35;100.00;95569.63;5083098;28;20538;-82
2023/10/26 07:11:50;;;;;;;3.03;2.42;;;;;;;8.40;100.00;95564.34;5083675;28;20392;-83
2023/10/26 07:14:17;;;;;;;4.22;2.83;;;;;;;8.43;100.00;95558.47;5084856;28;20396;-83
2023/10/26 07:16:43;;;;;;;2.92;2.40;;;;;;;8.47;100.00;95559.50;5085275;28;20399;-82
2023/10/26 07:19:10;;;;;;;2.90;2.22;;;;;;;8.50;100.00;95559.72;5086203;28;20415;-83
2023/10/26 07:21:37;;;;;;;3.35;2.13;;;;;;;8.56;100.00;95563.09;5086635;28;20465;-83
2023/10/26 07:24:04;;;;;;;3.17;2.22;;;;;;;8.59;100.00;95567.78;5088468;28;20410;-83
2023/10/26 07:26:30;;;;;;;3.20;2.17;;;;;;;8.64;100.00;95567.75;5084347;28;20454;-83
2023/10/26 07:28:57;;;;;;;2.65;2.25;;;;;;;8.66;100.00;95575.34;5085253;28;20415;-83
2023/10/26 07:31:23;;;;;;;3.53;2.38;;;;;;;8.68;100.00;95571.38;5079365;28;20430;-84
2023/10/26 07:33:50;;;;;;;2.55;2.00;;;;;;;8.71;100.00;95570.81;5077229;28;20399;-83
2023/10/26 07:36:16;;;;;;;3.25;2.00;;;;;;;8.76;100.00;95559.41;5077341;28;20406;-83
2023/10/26 07:38:43;;;;;;;2.67;2.05;;;;;;;8.80;100.00;95558.53;5078505;28;20404;-83
2023/10/26 07:41:09;;;;;;;2.13;1.77;;;;;;;8.85;100.00;95557.72;5077465;28;20434;-82
2023/10/26 07:43:36;;;;;;;3.10;1.77;;;;;;;8.90;100.00;95560.25;5078086;28;20909;-82
2023/10/26 07:46:03;;;;;;;2.92;1.90;;;;;;;8.95;100.00;95560.19;5082204;28;20426;-82
2023/10/26 07:48:30;;;;;;;2.90;1.80;;;;;;;8.98;100.00;95554.34;5084206;28;20412;-82
2023/10/26 07:50:57;;;;;;;2.33;1.90;;;;;;;9.00;100.00;95551.44;5081050;28;20399;-83
2023/10/26 07:53:23;;;;;;;1.67;1.52;;;;;;;9.04;100.00;95552.41;5085002;28;20399;-82
2023/10/26 07:55:51;;;;;;;4.32;2.20;;;;;;;9.02;100.00;95550.06;5091038;28;20399;-83
2023/10/26 07:58:17;;;;;;;4.25;2.10;;;;;;;9.06;100.00;95547.66;5083315;28;20404;-82
2023/10/26 08:00:44;;;;;;;3.00;2.00;;;;;;;9.09;100.00;95547.09;5085882;28;20392;-82
2023/10/26 08:03:10;;;;;;;3.03;2.10;;;;;;;9.10;100.00;95549.41;5087820;28;20403;-82
2023/10/26 08:05:36;;;;;;;4.95;1.80;;;;;;;9.12;100.00;95543.88;5084879;28;20396;-82
2023/10/26 08:08:03;;;;;;;2.08;1.80;;;;;;;9.14;100.00;95547.78;5088539;28;20412;-82
2023/10/26 08:10:32;;;;;;;5.55;2.00;;;;;;;9.17;100.00;95536.66;5081544;28;20404;-83
2023/10/26 08:12:59;;;;;;;4.60;2.15;;;;;;;9.20;100.00;95530.00;5076741;28;20447;-83
2023/10/26 08:15:25;;;;;;;6.40;2.33;;;;;;;9.20;100.00;95522.09;5077486;28;20410;-83
2023/10/26 08:17:52;;;;;;;7.68;2.40;;;;;;;9.22;100.00;95519.97;5078161;28;20400;-83
2023/10/26 08:20:18;;;;;;;2.97;2.00;;;;;;;9.29;100.00;95526.44;5078319;28;20396;-83
2023/10/26 08:22:44;;;;;;;2.38;1.90;;;;;;;9.37;100.00;95525.00;5077018;28;20531;-83
2023/10/26 08:25:11;;;;;;;4.60;2.10;;;;;;;9.39;100.00;95530.78;5076574;28;20400;-83
2023/10/26 08:27:37;;;;;;;2.77;1.77;;;;;;;9.46;100.00;95535.69;5078904;28;20498;-83
2023/10/26 08:30:06;;;;;;;5.05;2.03;;;;;;;9.41;100.00;95525.97;5076299;28;20510;-83
2023/10/26 08:32:32;;;;;;;2.83;1.77;;;;;;;9.45;100.00;95529.63;5087459;28;20435;-84
2023/10/26 08:34:58;;;;;;;2.45;1.50;;;;;;;9.49;100.00;95532.47;5098364;28;20444;-83
2023/10/26 08:37:25;;;;;;;1.75;1.40;;;;;;;9.52;100.00;95529.25;5092243;28;20791;-83
2023/10/26 08:39:51;;;;;;;1.70;1.55;;;;;;;9.55;100.00;95529.44;5079200;28;20400;-84
2023/10/26 08:42:18;;;;;;;3.70;1.73;;;;;;;9.59;100.00;95535.72;5079711;28;20396;-84
2023/10/26 08:44:44;;;;;;;3.70;1.90;;;;;;;9.62;100.00;95542.31;5080018;28;20392;-84
2023/10/26 08:47:17;;;;;;;4.43;1.60;;;;;;;9.63;100.00;95547.28;5085038;28;20436;-84
2023/10/26 08:49:44;;;;;;;5.40;1.60;;;;;;;9.68;100.00;95552.50;5084970;28;20416;-84
2023/10/26 08:52:10;;;;;;;1.77;1.35;;;;;;;9.75;100.00;95569.81;5083071;28;20728;-83
2023/10/26 08:54:37;;;;;;;1.88;1.38;;;;;;;9.80;100.00;95564.44;5079496;28;20399;-83
2023/10/26 08:57:07;;;;;;;1.50;1.17;;;;;;;9.84;100.00;95560.97;5080769;28;20457;-84
2023/10/26 08:59:33;;;;;;;1.27;1.20;;;;;;;9.90;100.00;95557.16;5082032;28;20751;-84
2023/10/26 09:01:59;;;;;;;2.50;1.70;;;;;;;9.93;100.00;95561.03;5080737;28;20474;-84
2023/10/26 09:04:27;;;;;;;2.15;1.35;;;;;;;9.95;100.00;95554.41;5080407;28;20463;-83
2023/10/26 09:06:53;;;;;;;1.67;1.40;;;;;;;10.01;100.00;95547.16;5080404;28;20403;-84
2023/10/26 09:09:20;;;;;;;2.30;1.42;;;;;;;10.05;100.00;95551.59;5079730;28;20420;-83
2023/10/26 09:11:48;;;;;;;3.40;1.30;;;;;;;10.15;100.00;95536.63;5079837;28;20399;-83
2023/10/26 09:14:15;;;;;;;1.65;1.05;;;;;;;10.28;100.00;95543.81;5080438;28;20384;-82
2023/10/26 09:16:44;;;;;;;1.20;1.10;;;;;;;10.34;100.00;95551.34;5080609;28;20384;-82
2023/10/26 09:19:11;;;;;;;3.33;1.43;;;;;;;10.33;100.00;95544.47;5079698;28;20672;-82
2023/10/26 09:21:55;;;;;;;6.68;2.03;;;;;;;10.26;100.00;95548.59;5080403;28;20449;-82
2023/10/26 09:24:24;;;;;;;4.67;1.73;;;;;;;10.19;100.00;95550.84;5079197;28;20534;-81
2023/10/26 09:26:52;;;;;;;3.70;1.75;;;;;;;10.16;100.00;95546.09;5081052;28;20391;-81
2023/10/26 09:29:20;;;;;;;4.03;1.80;;;;;;;10.14;100.00;95530.53;5081647;28;20411;-82
2023/10/26 09:31:53;;;;;;;1.92;1.55;;;;;;;10.20;100.00;95533.91;5080485;28;20400;-81
2023/10/26 09:34:23;;;;;;;1.98;1.60;;;;;;;10.21;100.00;95548.69;5080264;28;20399;-82
2023/10/26 09:37:02;;;;;;;2.47;1.30;;;;;;;10.18;100.00;95542.13;5081780;28;20496;-82
2023/10/26 09:39:32;;;;;;;5.13;2.05;;;;;;;10.09;100.00;95544.63;5087707;28;20402;-81
2023/10/26 09:42:00;;;;;;;3.83;1.90;;;;;;;10.05;100.00;95548.16;5079633;28;20388;-81
2023/10/26 09:44:27;;;;;;;6.85;2.35;;;;;;;9.95;100.00;95540.41;5080297;28;20399;-82
2023/10/26 09:46:53;;;;;;;3.40;1.90;;;;;;;9.92;100.00;95572.72;5080314;28;20458;-82
2023/10/26 09:49:21;;;;;;;12.43;2.63;;;;;;;9.84;100.00;95576.03;5080538;28;20502;-82
2023/10/26 09:51:47;;;;;;;8.10;3.20;;;;;;;9.78;100.00;95599.09;5085529;28;20399;-81
2023/10/26 09:54:16;;;;;;;4.73;2.50;;;;;;;9.75;100.00;95581.19;5082996;28;20760;-82
2023/10/26 09:56:49;;;;;;;3.08;2.17;;;;;;;9.73;100.00;95559.53;5082969;28;20427;-80
2023/10/26 09:59:16;;;;;;;2.67;2.05;;;;;;;9.74;100.00;95533.91;5083142;28;20465;-81
2023/10/26 10:01:43;;;;;;;2.63;1.95;;;;;;;9.75;100.00;95556.63;5083726;28;20438;-81
2023/10/26 10:04:10;;;;;;;2.17;1.80;;;;;;;9.74;100.00;95553.19;5083597;28;20590;-81
2023/10/26 10:06:44;;;;;;;2.03;1.70;;;;;;;9.77;100.00;95544.69;5083462;28;20392;-81
2023/10/26 10:09:10;;;;;;;1.80;1.60;;;;;;;9.78;100.00;95559.44;5085411;28;20415;-80
2023/10/26 10:11:41;;;;;;;1.70;1.50;;;;;;;9.80;100.00;95559.94;5081320;28;20403;-80
2023/10/26 10:14:07;;;;;;;2.05;1.40;;;;;;;9.82;100.00;95546.44;5081086;28;20396;-79
2023/10/26 10:16:52;;;;;;;1.42;1.33;;;;;;;9.84;100.00;95545.09;5080704;28;20766;-80
2023/10/26 10:19:20;;;;;;;1.70;1.27;;;;;;;9.88;100.00;95563.78;5080689;28;20404;-80
2023/10/26 10:21:48;;;;;;;2.05;1.30;;;;;;;9.91;100.00;95564.00;5086003;28;20442;-81
2023/10/26 10:24:47;;;;;;;1.63;1.40;;;;;;;9.95;100.00;95575.53;5080492;28;20944;-80
2023/10/26 10:27:18;;;;;;;1.50;1.40;;;;;;;10.01;100.00;95570.94;5082298;28;20417;-80
2023/10/26 10:29:44;;;;;;;1.75;1.20;;;;;;;10.03;100.00;95568.81;5083270;28;20411;-80
2023/10/26 10:32:11;;;;;;;1.45;1.30;;;;;;;10.06;100.00;95566.38;5086341;28;20436;-80
2023/10/26 10:34:43;;;;;;;1.40;1.30;;;;;;;10.10;100.00;95571.84;5103498;28;20418;-80
2023/10/26 10:37:13;;;;;;;1.25;1.15;;;;;;;10.14;100.00;95564.13;5103648;28;20397;-80
2023/10/26 10:40:13;;;;;;;1.40;1.20;;;;;;;10.16;100.00;95573.31;5103192;28;20413;-80
2023/10/26 10:42:40;;;;;;;1.40;1.30;;;;;;;10.17;100.00;95556.41;5103452;28;20408;-81
2023/10/26 10:45:13;;;;;;;1.30;1.20;;;;;;;10.20;100.00;95563.78;5085767;28;20391;-81
2023/10/26 10:47:39;;;;;;;2.60;1.20;;;;;;;10.23;100.00;95565.03;5085803;28;20403;-80
2023/10/26 10:50:19;;;;;;;1.60;1.30;;;;;;;10.24;100.00;95558.66;5081547;28;20874;-80
2023/10/26 10:52:46;;;;;;;2.00;1.40;;;;;;;10.29;100.00;95571.81;5081879;28;20496;-80
2023/10/26 10:55:19;;;;;;;1.48;1.33;;;;;;;10.36;100.00;95569.56;5081810;28;20388;-80
2023/10/26 10:57:53;;;;;;;1.40;1.30;;;;;;;10.42;100.00;95573.69;5081230;28;20485;-80
2023/10/26 11:00:19;;;;;;;1.85;1.27;;;;;;;10.46;100.00;95569.34;5080084;28;20400;-81
2023/10/26 11:02:49;;;;;;;1.58;1.02;;;;;;;10.46;100.00;95567.50;5077864;28;20422;-80
2023/10/26 11:05:16;;;;;;;2.47;1.63;;;;;;;10.48;100.00;95551.34;5076091;28;20491;-81
2023/10/26 11:07:42;;;;;;;1.95;1.45;;;;;;;10.50;100.00;95556.34;5074947;28;20396;-81
2023/10/26 11:10:09;;;;;;;2.25;1.30;;;;;;;10.57;100.00;95554.84;5076801;28;20415;-81
2023/10/26 11:12:37;;;;;;;2.63;1.55;;;;;;;10.66;100.00;95545.16;5078355;28;20448;-80
2023/10/26 11:15:04;;;;;;;1.42;1.30;;;;;;;10.73;100.00;95544.75;5076719;28;20396;-80
2023/10/26 11:17:31;;;;;;;1.40;1.30;;;;;;;10.77;100.00;95551.78;5076717;28;20427;-80
2023/10/26 11:19:57;;;;;;;2.72;1.33;;;;;;;10.79;100.00;95548.84;5076907;28;20458;-80
2023/10/26 11:22:24;;;;;;;1.45;1.30;;;;;;;10.81;100.00;95554.63;5078725;28;20430;-81
2023/10/26 11:24:50;;;;;;;1.30;1.20;;;;;;;10.82;100.00;95553.56;5079762;28;20457;-81
2023/10/26 11:27:20;;;;;;;1.20;1.10;;;;;;;10.86;100.00;95542.06;5079557;28;21251;-81
2023/10/26 11:30:02;;;;;;;1.20;1.15;;;;;;;10.92;100.00;95552.53;5079410;28;20864;-81
2023/10/26 11:32:29;;;;;;;2.00;1.33;;;;;;;10.94;100.00;95540.59;5085827;28;20405;-81